Aviation Digital Data Service (ADDS)

Output produced by METARs form (2122 UTC 13 February 2016)
found at http://www.aviationweather.gov/adds/metars/
 
KSEG 132053Z AUTO 31011G29KT 10SM FEW060 OVC080 M11/M23 A3027 RMK AO2 PK WND 29033/1956 SLP260 T11111228 53016
KSEG 131953Z AUTO 30013G27KT 10SM OVC065 M11/M23 A3025 RMK AO2 PK WND 31028/1942 SLP253 T11061228
KSEG 131853Z AUTO 31019G28KT 10SM OVC065 M11/M23 A3024 RMK AO2 PK WND 30029/1821 SLP249 T11061228
KSEG 131753Z AUTO 30013G30KT 10SM OVC060 M10/M22 A3023 RMK AO2 PK WND 30030/1744 SLP245 60000 T11001217 11094 21106 51018
KSEG 131653Z AUTO 30016G25KT 9SM OVC060 M11/M22 A3022 RMK AO2 PK WND 32030/1606 SLP241 T11061222
KSEG 131553Z AUTO 30015G23KT 9SM FEW047 OVC060 M10/M21 A3020 RMK AO2 UPE00 SLP236 P0000 T11001206
KSEG 131453Z AUTO 29016G25KT 5SM UP BKN050 BKN060 M10/M20 A3017 RMK AO2 UPB53SNE26 SLP225 P0000 60000 T11001200 53019
KSEG 131428Z AUTO 31015G22KT 4SM BLSN FEW030 BKN038 BKN049 M10/M19 A3016 RMK AO2 SNE26 P0000 T11001194
KSEG 131421Z AUTO 31012G17KT 2 1/2SM -SN SCT029 BKN037 BKN049 M10/M16 A3016 RMK AO2 P0000 T11001156
KSEG 131412Z AUTO 29009G15KT 1 3/4SM -SN BKN021 BKN034 OVC048 M10/M14 A3016 RMK AO2 VIS 3/4V3 P0000 T11001144
KSEG 131406Z AUTO 28011G20KT 3SM -SN BKN021 BKN041 OVC049 M10/M16 A3015 RMK AO2 P0000 T11001156
KSEG 131401Z AUTO 29011G20KT 1 1/4SM -SN BKN019 BKN036 OVC046 M10/M14 A3015 RMK AO2 P0000 T11001144
KSEG 131353Z AUTO 29010KT 3/4SM -SN BKN021 OVC038 M10/M14 A3015 RMK AO2 SNE20B35 SLP217 P0000 T11001139
KSEG 131343Z AUTO 29010G17KT 1SM -SN BKN029 BKN038 OVC060 M10/M14 A3014 RMK AO2 SNE20B35 P0000 T11001139
KSEG 131339Z AUTO 28010G17KT 250V310 1 3/4SM -SN BKN038 OVC050 M10/M14 A3014 RMK AO2 SNE20B35 P0000 T11001144
KSEG 131321Z AUTO 29011G16KT 9SM BKN036 BKN049 OVC060 M10/M16 A3013 RMK AO2 SNE20 P0000 T11001156
KSEG 131313Z AUTO 28009G18KT 250V310 4SM -SN BKN028 BKN039 OVC047 M10/M16 A3012 RMK AO2 P0000 T11001156
KSEG 131310Z AUTO 28009G18KT 240V300 1 1/4SM -SN BKN028 OVC047 M10/M15 A3012 RMK AO2 P0000 T11001150
KSEG 131301Z AUTO 28010G19KT 3/4SM -SN OVC022 M10/M14 A3012 RMK AO2 P0000 T11001144
KSEG 131257Z AUTO 31014G18KT 1 1/2SM -SN OVC024 M10/M15 A3012 RMK AO2 P0000 T11001150
KSEG 131253Z AUTO 32011KT 3SM -SN OVC024 M10/M14 A3012 RMK AO2 SNB15 SLP206 P0000 T11001144
KSEG 131242Z AUTO 33011G18KT 2SM -SN OVC028 M10/M15 A3011 RMK AO2 SNB15 P0000 T11001150
KSEG 131235Z AUTO 32014G18KT 1 3/4SM -SN OVC032 M10/M16 A3011 RMK AO2 SNB15 P0000 T11001156
KSEG 131153Z AUTO 30005KT 10SM BKN050 M09/M19 A3009 RMK AO2 SLP196 T10941189 11067 21094 51042
KSEG 131053Z AUTO 30009KT 10SM CLR M09/M18 A3005 RMK AO2 SLP184 T10891183
KSEG 130953Z AUTO 32013G22KT 10SM BKN041 M08/M18 A3002 RMK AO2 PK WND 32026/0938 SLP172 T10781178
KSEG 130853Z AUTO 30011KT 10SM CLR M07/M14 A2996 RMK AO2 SLP153 T10721144 53014
KSEG 130753Z AUTO 26007KT 220V290 10SM CLR M07/M13 A2993 RMK AO2 SLP143 T10721133
KSEG 130653Z AUTO 27004KT 10SM CLR M07/M12 A2992 RMK AO2 SLP138 T10721122
KSEG 130553Z AUTO 00000KT 10SM CLR M09/M12 A2992 RMK AO2 SLP139 60000 T10941117 11067 21094 58010
KSEG 130453Z AUTO 20004KT 10SM BKN040 M08/M11 A2993 RMK AO2 SLP142 T10781106 410561183
KSEG 130353Z AUTO 22004KT 10SM SCT038 OVC090 M07/M10 A2994 RMK AO2 SLP146 T10721100
KSEG 130253Z AUTO 22004KT 6SM HZ FEW065 OVC095 M07/M09 A2995 RMK AO2 SNE47 SLP149 P0000 60000 T10671094 58008
KSEG 130153Z AUTO 21003KT 4SM -SN OVC044 M07/M09 A2996 RMK AO2 SLP154 P0000 T10671094
KSEG 130145Z AUTO 19004KT 3SM -SN OVC040 M07/M09 A2996 RMK AO2 P0000 T10671094
KSEG 130112Z AUTO 20003KT 2 1/2SM -SN OVC034 M07/M09 A2997 RMK AO2 P0000 T10671094
KSEG 130053Z AUTO 20003KT 4SM -SN OVC036 M07/M10 A2997 RMK AO2 SNB07 SLP159 P0000 T10671100
KSEG 122353Z AUTO 20004KT 10SM OVC085 M07/M11 A2997 RMK AO2 SLP159 60000 T10671106 11056 21067 56016
KSEG 122253Z AUTO 20003KT 10SM SCT048 SCT070 SCT110 M07/M11 A2999 RMK AO2 SNB01E12 SLP163 P0000 T10671111
KSEG 122153Z AUTO 19007KT 10SM BKN039 OVC050 M06/M12 A3000 RMK AO2 SLP169 T10611117
KSEG 122053Z AUTO 25006KT 10SM FEW046 OVC055 M06/M14 A3002 RMK AO2 SLP174 T10561144 56030
KSEG 121953Z AUTO 18006KT 10SM SCT060 BKN075 M06/M15 A3004 RMK AO2 SLP180 T10561150
KSEG 121853Z AUTO 20009KT 10SM BKN050 OVC085 M06/M16 A3007 RMK AO2 SLP191 T10561156
KSEG 121753Z AUTO 22009KT 10SM BKN090 M06/M16 A3011 RMK AO2 SLP204 T10611156 11061 21178 58038
KSEG 121653Z AUTO 21006KT 10SM FEW110 M07/M15 A3015 RMK AO2 SLP218 T10671150
KSEG 121553Z AUTO 20008KT 170V230 10SM CLR M07/M14 A3019 RMK AO2 SLP233 T10721144
KSEG 121453Z AUTO VRB06KT 10SM BKN120 M08/M15 A3022 RMK AO2 SLP242 T10831150 56010
KSEG 121353Z AUTO 00000KT 10SM CLR M11/M14 A3023 RMK AO2 SLP245 T11061139
KSEG 121253Z AUTO 00000KT 10SM CLR M15/M17 A3025 RMK AO2 SLP252 T11501167
KSEG 121153Z AUTO 00000KT 10SM CLR M18/M20 A3025 RMK AO2 SLP255 I1000 I6000 T11781200 11100 21183 56001
KSEG 121053Z AUTO 00000KT 10SM CLR M16/M17 A3025 RMK AO2 SLP254 I1000 T11561172
KSEG 120953Z AUTO 32003KT 10SM CLR M15/M17 A3025 RMK AO2 SLP253 T11501172